Time;durP1;ratioP1;P1;durP2;ratioP2;P2;SDS_P1;SDS_P2;PMS_P1;PMS_P2;Temp;Humidity;BMP_temperature;BMP_pressure;BME280_temperature;BME280_humidity;BME280_pressure;Samples;Min_cycle;Max_cycle;Signal;HPM_P1;HPM_P2
2022/10/21 00:01:07;;;;;;;;;0.00;0.00;;;;;;;;5166151;28;8831;-73
2022/10/21 00:03:39;;;;;;;;;0.80;0.80;;;;;;;;5167491;28;8852;-73
2022/10/21 00:06:29;;;;;;;;;0.00;0.00;;;;;;;;5152097;28;8841;-72
2022/10/21 00:09:00;;;;;;;;;0.00;0.00;;;;;;;;5167426;28;8801;-72
2022/10/21 00:11:31;;;;;;;;;1.00;1.00;;;;;;;;5165589;28;8803;-72
2022/10/21 00:14:02;;;;;;;;;33.00;31.75;;;;;;;;5149547;28;8817;-72
2022/10/21 00:16:33;;;;;;;;;8.40;7.80;;;;;;;;5149917;28;9551;-72
2022/10/21 00:19:04;;;;;;;;;12.40;12.00;;;;;;;;5182321;28;8821;-72
2022/10/21 00:21:36;;;;;;;;;15.80;14.60;;;;;;;;5165946;28;8945;-72
2022/10/21 00:24:08;;;;;;;;;14.20;11.60;;;;;;;;5149652;28;8779;-72
2022/10/21 00:26:39;;;;;;;;;7.00;7.00;;;;;;;;5149166;28;8854;-72
2022/10/21 00:29:10;;;;;;;;;1.00;1.00;;;;;;;;5149017;28;8853;-73
2022/10/21 00:31:41;;;;;;;;;1.60;1.60;;;;;;;;5149393;28;8787;-73
2022/10/21 00:34:13;;;;;;;;;0.00;0.00;;;;;;;;5165348;28;8826;-73
2022/10/21 00:36:44;;;;;;;;;0.00;0.00;;;;;;;;5165596;28;8795;-73
2022/10/21 00:39:15;;;;;;;;;0.00;0.00;;;;;;;;5164087;28;8819;-73
2022/10/21 00:42:06;;;;;;;;;0.00;0.00;;;;;;;;5165168;28;8791;-73
2022/10/21 00:44:39;;;;;;;;;0.00;0.00;;;;;;;;5181216;28;9534;-73
2022/10/21 00:47:14;;;;;;;;;0.00;0.00;;;;;;;;5148498;28;8811;-73
2022/10/21 00:49:57;;;;;;;;;0.00;0.00;;;;;;;;5148946;28;8831;-73
2022/10/21 00:52:30;;;;;;;;;0.00;0.00;;;;;;;;5165414;28;8930;-73
2022/10/21 00:55:03;;;;;;;;;0.00;0.00;;;;;;;;5148988;28;8818;-73
2022/10/21 00:57:35;;;;;;;;;0.00;0.00;;;;;;;;5148592;28;8945;-72
2022/10/21 01:00:06;;;;;;;;;0.00;0.00;;;;;;;;5165160;28;8835;-73
2022/10/21 01:02:37;;;;;;;;;0.20;0.20;;;;;;;;5164935;28;8877;-71
2022/10/21 01:05:10;;;;;;;;;1.00;1.00;;;;;;;;5149464;28;8802;-73
2022/10/21 01:07:41;;;;;;;;;0.20;0.20;;;;;;;;5145344;28;9578;-73
2022/10/21 01:10:12;;;;;;;;;1.00;1.00;;;;;;;;5162441;28;8804;-71
2022/10/21 01:12:57;;;;;;;;;3.80;3.80;;;;;;;;5148883;28;8810;-71
2022/10/21 01:15:28;;;;;;;;;1.20;1.20;;;;;;;;5149043;28;8922;-71
2022/10/21 01:18:28;;;;;;;;;0.00;0.00;;;;;;;;5148669;28;8898;-72
2022/10/21 01:21:12;;;;;;;;;0.00;0.00;;;;;;;;5139775;28;8826;-72
2022/10/21 01:24:09;;;;;;;;;0.00;0.00;;;;;;;;5150793;28;8804;-73
2022/10/21 01:26:40;;;;;;;;;0.00;0.00;;;;;;;;5164586;28;8811;-73
2022/10/21 01:29:12;;;;;;;;;0.80;0.80;;;;;;;;5131756;28;8824;-73
2022/10/21 01:31:53;;;;;;;;;0.00;0.00;;;;;;;;5148677;28;8805;-71
2022/10/21 01:34:25;;;;;;;;;0.00;0.00;;;;;;;;5165729;28;8775;-71
2022/10/21 01:37:20;;;;;;;;;0.00;0.00;;;;;;;;5164615;28;8819;-71
2022/10/21 01:40:06;;;;;;;;;0.00;0.00;;;;;;;;5180718;28;8819;-72
2022/10/21 01:42:44;;;;;;;;;0.00;0.00;;;;;;;;5132288;28;8827;-71
2022/10/21 01:45:18;;;;;;;;;0.00;0.00;;;;;;;;5164066;28;8768;-71
2022/10/21 01:47:52;;;;;;;;;0.00;0.00;;;;;;;;5147522;28;9674;-71
2022/10/21 01:50:52;;;;;;;;;0.00;0.00;;;;;;;;5178256;28;8795;-71
2022/10/21 01:53:26;;;;;;;;;0.00;0.00;;;;;;;;5164078;28;8795;-71
2022/10/21 01:56:01;;;;;;;;;0.00;0.00;;;;;;;;5163919;28;8827;-71
2022/10/21 01:58:34;;;;;;;;;0.00;0.00;;;;;;;;5131642;28;8800;-71
2022/10/21 02:01:07;;;;;;;;;0.00;0.00;;;;;;;;5163604;28;8933;-72
2022/10/21 02:03:48;;;;;;;;;0.00;0.00;;;;;;;;5148657;28;8818;-72
2022/10/21 02:06:20;;;;;;;;;0.00;0.00;;;;;;;;5147537;28;8921;-72
2022/10/21 02:08:51;;;;;;;;;0.00;0.00;;;;;;;;5147665;28;8965;-72
2022/10/21 02:11:22;;;;;;;;;0.00;0.00;;;;;;;;5147634;28;8799;-72
2022/10/21 02:14:07;;;;;;;;;0.00;0.00;;;;;;;;5147630;28;8779;-71
2022/10/21 02:16:39;;;;;;;;;0.60;0.60;;;;;;;;5142677;28;8821;-71
2022/10/21 02:19:28;;;;;;;;;0.00;0.00;;;;;;;;5143606;28;8892;-72
2022/10/21 02:22:01;;;;;;;;;1.00;1.00;;;;;;;;5155798;28;8811;-71
2022/10/21 02:24:32;;;;;;;;;0.00;0.00;;;;;;;;5163499;28;8814;-72
2022/10/21 02:27:04;;;;;;;;;1.00;1.00;;;;;;;;5162122;28;8803;-76
2022/10/21 02:29:37;;;;;;;;;0.00;0.00;;;;;;;;5163473;28;8803;-76
2022/10/21 02:32:17;;;;;;;;;0.00;0.00;;;;;;;;5163470;28;8803;-75
2022/10/21 02:35:01;;;;;;;;;0.00;0.00;;;;;;;;5163594;28;8938;-75
2022/10/21 02:37:40;;;;;;;;;0.00;0.00;;;;;;;;5163434;28;8977;-72
2022/10/21 02:40:21;;;;;;;;;0.00;0.00;;;;;;;;5162670;28;8965;-74
2022/10/21 02:43:13;;;;;;;;;2.60;2.60;;;;;;;;5131054;28;8914;-73
2022/10/21 02:46:11;;;;;;;;;2.00;2.00;;;;;;;;5162956;28;8810;-73
2022/10/21 02:49:00;;;;;;;;;3.80;3.80;;;;;;;;5163154;28;8950;-73
2022/10/21 02:51:31;;;;;;;;;2.00;2.00;;;;;;;;5163214;28;8808;-72
2022/10/21 02:54:02;;;;;;;;;1.20;1.20;;;;;;;;5163160;28;8783;-72
2022/10/21 02:56:53;;;;;;;;;17.60;17.60;;;;;;;;5149352;28;8795;-72
2022/10/21 02:59:24;;;;;;;;;20.40;19.20;;;;;;;;5146944;28;9554;-73
2022/10/21 03:02:14;;;;;;;;;6.80;6.80;;;;;;;;5158529;28;9015;-72
2022/10/21 03:04:45;;;;;;;;;4.00;4.00;;;;;;;;5150991;28;8845;-72
2022/10/21 03:07:16;;;;;;;;;1.20;1.20;;;;;;;;5165917;28;8838;-71
2022/10/21 03:10:06;;;;;;;;;2.20;2.20;;;;;;;;5167066;28;8787;-71
2022/10/21 03:12:55;;;;;;;;;4.00;4.00;;;;;;;;5183323;28;9545;-71
2022/10/21 03:15:26;;;;;;;;;2.80;2.80;;;;;;;;5150377;28;8791;-71
2022/10/21 03:17:57;;;;;;;;;5.00;5.00;;;;;;;;5166708;28;9008;-73
2022/10/21 03:20:28;;;;;;;;;6.00;6.00;;;;;;;;5166621;28;9561;-75
2022/10/21 03:23:00;;;;;;;;;9.20;9.20;;;;;;;;5168034;28;8822;-72
2022/10/21 03:25:31;;;;;;;;;9.00;9.00;;;;;;;;5167548;28;8823;-72
2022/10/21 03:28:02;;;;;;;;;8.60;7.80;;;;;;;;5150162;28;8841;-72
2022/10/21 03:30:33;;;;;;;;;7.80;7.80;;;;;;;;5150508;28;8803;-73
2022/10/21 03:33:04;;;;;;;;;8.20;8.20;;;;;;;;5166363;28;8807;-72
2022/10/21 03:35:36;;;;;;;;;10.60;10.60;;;;;;;;5150585;28;8788;-73
2022/10/21 03:38:07;;;;;;;;;4.20;4.20;;;;;;;;5134326;28;8795;-73
2022/10/21 03:40:38;;;;;;;;;9.80;9.80;;;;;;;;5149369;28;8858;-72
2022/10/21 03:43:09;;;;;;;;;17.00;15.00;;;;;;;;5166145;28;8825;-73
2022/10/21 03:45:40;;;;;;;;;10.60;10.00;;;;;;;;5165605;28;8826;-73
2022/10/21 03:48:11;;;;;;;;;12.00;12.00;;;;;;;;5149832;28;8861;-72
2022/10/21 03:50:43;;;;;;;;;10.00;10.00;;;;;;;;5167382;28;8822;-74
2022/10/21 03:53:14;;;;;;;;;12.00;12.00;;;;;;;;5166120;28;8779;-72
2022/10/21 03:55:45;;;;;;;;;8.60;8.60;;;;;;;;5167317;28;8877;-73
2022/10/21 03:58:16;;;;;;;;;5.60;5.20;;;;;;;;5149427;28;8823;-73
2022/10/21 04:00:52;;;;;;;;;7.60;7.60;;;;;;;;5165490;28;8819;-73
2022/10/21 04:03:23;;;;;;;;;3.20;3.20;;;;;;;;5165626;28;8787;-71
2022/10/21 04:05:54;;;;;;;;;3.20;3.20;;;;;;;;5165467;28;8830;-71
2022/10/21 04:08:25;;;;;;;;;2.00;2.00;;;;;;;;5167046;28;8841;-73
2022/10/21 04:10:56;;;;;;;;;11.20;11.20;;;;;;;;5167002;28;8933;-72
2022/10/21 04:13:28;;;;;;;;;6.00;6.00;;;;;;;;5165617;28;8783;-71
2022/10/21 04:16:00;;;;;;;;;2.00;2.00;;;;;;;;5181849;28;8822;-71
2022/10/21 04:18:31;;;;;;;;;5.60;5.60;;;;;;;;5165711;28;8949;-72
2022/10/21 04:21:02;;;;;;;;;10.00;9.80;;;;;;;;5181696;28;8815;-72
2022/10/21 04:23:34;;;;;;;;;7.00;7.00;;;;;;;;5165141;28;8811;-72
2022/10/21 04:26:23;;;;;;;;;14.00;12.20;;;;;;;;5166396;28;8869;-72
2022/10/21 04:28:54;;;;;;;;;6.00;6.00;;;;;;;;5166570;28;8787;-73
2022/10/21 04:31:25;;;;;;;;;9.00;8.60;;;;;;;;5149607;28;8970;-73
2022/10/21 04:33:57;;;;;;;;;15.80;15.40;;;;;;;;5164353;28;8807;-74
2022/10/21 04:36:47;;;;;;;;;16.20;16.00;;;;;;;;5177323;28;8824;-73
2022/10/21 04:39:18;;;;;;;;;16.20;15.20;;;;;;;;5145323;28;8836;-73
2022/10/21 04:41:51;;;;;;;;;19.00;18.40;;;;;;;;5147634;28;8849;-73
2022/10/21 04:44:23;;;;;;;;;19.60;17.60;;;;;;;;5164116;28;8827;-72
2022/10/21 04:47:14;;;;;;;;;17.80;17.00;;;;;;;;5163913;28;9692;-73
2022/10/21 04:49:45;;;;;;;;;18.40;17.80;;;;;;;;5176891;28;8813;-72
2022/10/21 04:52:34;;;;;;;;;9.20;9.00;;;;;;;;5155710;28;8807;-72
2022/10/21 04:55:06;;;;;;;;;14.20;14.20;;;;;;;;5163539;28;8791;-73
2022/10/21 04:57:39;;;;;;;;;24.00;24.00;;;;;;;;5161166;28;8942;-74
2022/10/21 05:00:10;;;;;;;;;21.20;20.60;;;;;;;;5145789;28;8973;-75
2022/10/21 05:02:42;;;;;;;;;11.60;11.00;;;;;;;;5147373;28;9725;-72
2022/10/21 05:05:14;;;;;;;;;14.00;12.60;;;;;;;;5163953;28;8803;-74
2022/10/21 05:07:46;;;;;;;;;6.80;6.80;;;;;;;;5164762;28;8807;-75
2022/10/21 05:10:22;;;;;;;;;11.00;11.00;;;;;;;;5148347;28;8842;-79
2022/10/21 05:12:56;;;;;;;;;2.00;2.00;;;;;;;;5147426;28;9538;-74
2022/10/21 05:15:45;;;;;;;;;2.40;2.40;;;;;;;;5163920;28;8934;-74
2022/10/21 05:18:16;;;;;;;;;2.00;2.00;;;;;;;;5144141;28;8838;-75
2022/10/21 05:20:51;;;;;;;;;3.80;3.80;;;;;;;;5164739;28;9012;-72
2022/10/21 05:23:23;;;;;;;;;4.40;4.40;;;;;;;;5180602;28;8792;-72
2022/10/21 05:25:54;;;;;;;;;8.80;8.80;;;;;;;;5145996;28;8815;-74
2022/10/21 05:28:25;;;;;;;;;0.00;0.00;;;;;;;;5164084;28;8941;-73
2022/10/21 05:30:56;;;;;;;;;1.00;1.00;;;;;;;;5162159;28;8945;-72
2022/10/21 05:33:27;;;;;;;;;0.80;0.80;;;;;;;;5162742;28;8833;-72
2022/10/21 05:36:00;;;;;;;;;5.60;5.60;;;;;;;;5162215;28;8917;-72
2022/10/21 05:38:32;;;;;;;;;1.80;1.80;;;;;;;;5146327;28;8815;-72
2022/10/21 05:41:03;;;;;;;;;4.60;4.60;;;;;;;;5160002;28;8897;-72
2022/10/21 05:43:34;;;;;;;;;3.60;3.60;;;;;;;;5163572;28;8857;-73
2022/10/21 05:46:07;;;;;;;;;3.80;3.80;;;;;;;;5163253;28;8941;-74
2022/10/21 05:48:38;;;;;;;;;2.00;2.00;;;;;;;;5162546;28;8840;-73
2022/10/21 05:51:09;;;;;;;;;2.60;2.60;;;;;;;;5161634;28;8827;-73
2022/10/21 05:53:40;;;;;;;;;2.80;2.80;;;;;;;;5163332;28;8942;-75
2022/10/21 05:56:30;;;;;;;;;8.00;8.00;;;;;;;;5160782;28;8831;-74
2022/10/21 05:59:01;;;;;;;;;5.40;5.40;;;;;;;;5163212;28;8845;-72
2022/10/21 06:01:33;;;;;;;;;3.00;3.00;;;;;;;;5162180;28;8874;-75
2022/10/21 06:04:04;;;;;;;;;3.00;2.40;;;;;;;;5161156;28;8799;-81
2022/10/21 06:06:35;;;;;;;;;6.20;6.20;;;;;;;;5162349;28;8787;-74
2022/10/21 06:09:25;;;;;;;;;3.40;3.40;;;;;;;;5165073;28;8980;-75
2022/10/21 06:11:56;;;;;;;;;0.00;0.00;;;;;;;;5164710;28;8937;-72
2022/10/21 06:14:27;;;;;;;;;0.00;0.00;;;;;;;;5163558;28;8810;-76
2022/10/21 06:16:59;;;;;;;;;1.80;1.80;;;;;;;;5154012;28;8814;-72
2022/10/21 06:19:30;;;;;;;;;0.00;0.00;;;;;;;;5147716;28;8831;-77
2022/10/21 06:22:01;;;;;;;;;1.00;1.00;;;;;;;;5179901;28;8783;-74
2022/10/21 06:24:32;;;;;;;;;1.20;1.20;;;;;;;;5180372;28;8814;-81
2022/10/21 06:27:04;;;;;;;;;0.80;0.80;;;;;;;;5162265;28;8839;-76
2022/10/21 06:29:35;;;;;;;;;0.00;0.00;;;;;;;;5150750;28;8791;-73
2022/10/21 06:32:18;;;;;;;;;1.00;1.00;;;;;;;;5178149;28;8841;-76
2022/10/21 06:34:49;;;;;;;;;0.00;0.00;;;;;;;;5160780;28;8807;-76
2022/10/21 06:37:21;;;;;;;;;6.40;5.40;;;;;;;;5161585;28;8906;-73
2022/10/21 06:39:52;;;;;;;;;0.00;0.00;;;;;;;;5161786;28;8949;-75
2022/10/21 06:42:23;;;;;;;;;0.00;0.00;;;;;;;;5161738;28;8811;-75
2022/10/21 06:44:54;;;;;;;;;0.00;0.00;;;;;;;;5161762;28;8799;-74
2022/10/21 06:47:25;;;;;;;;;0.00;0.00;;;;;;;;5163296;28;8830;-73
2022/10/21 06:50:01;;;;;;;;;0.80;0.20;;;;;;;;5177385;28;9517;-75
2022/10/21 06:52:51;;;;;;;;;1.00;1.00;;;;;;;;5163177;28;8783;-78
2022/10/21 06:55:22;;;;;;;;;6.00;6.00;;;;;;;;5176854;28;8834;-75
2022/10/21 06:57:54;;;;;;;;;4.60;3.00;;;;;;;;5160479;28;8808;-73
2022/10/21 07:00:25;;;;;;;;;1.00;1.00;;;;;;;;5152208;28;8843;-72
2022/10/21 07:02:57;;;;;;;;;0.00;0.00;;;;;;;;5146887;28;9535;-73
2022/10/21 07:05:28;;;;;;;;;0.00;0.00;;;;;;;;5144991;28;8858;-73
2022/10/21 07:07:59;;;;;;;;;0.00;0.00;;;;;;;;5161782;28;8799;-73
2022/10/21 07:10:30;;;;;;;;;2.00;2.00;;;;;;;;5163243;28;8826;-73
2022/10/21 07:13:01;;;;;;;;;0.00;0.00;;;;;;;;5161439;28;8795;-75
2022/10/21 07:15:33;;;;;;;;;0.00;0.00;;;;;;;;5176080;28;8806;-72
2022/10/21 07:18:04;;;;;;;;;1.00;1.00;;;;;;;;5144581;28;8962;-74
2022/10/21 07:20:35;;;;;;;;;1.60;1.60;;;;;;;;5161198;28;8831;-73
2022/10/21 07:23:07;;;;;;;;;3.00;3.00;;;;;;;;5165124;28;8825;-72
2022/10/21 07:25:38;;;;;;;;;1.00;1.00;;;;;;;;5171654;28;8938;-73
2022/10/21 07:28:09;;;;;;;;;0.00;0.00;;;;;;;;5146420;28;8795;-72
2022/10/21 07:30:42;;;;;;;;;0.00;0.00;;;;;;;;5146976;28;9527;-72
2022/10/21 07:33:13;;;;;;;;;0.20;0.20;;;;;;;;5158715;28;8936;-72
2022/10/21 07:36:07;;;;;;;;;0.80;0.80;;;;;;;;5143159;28;8798;-71
2022/10/21 07:38:40;;;;;;;;;9.80;8.80;;;;;;;;5143371;28;8802;-73
2022/10/21 07:41:15;;;;;;;;;43.20;38.20;;;;;;;;5142989;28;8834;-72
2022/10/21 07:43:47;;;;;;;;;10.20;10.00;;;;;;;;5143042;28;8818;-71
2022/10/21 07:46:38;;;;;;;;;6.20;6.20;;;;;;;;5142659;28;8793;-71
2022/10/21 07:49:10;;;;;;;;;1.60;1.60;;;;;;;;5147180;28;9552;-72
2022/10/21 07:51:42;;;;;;;;;0.20;0.20;;;;;;;;5146099;28;9230;-71
2022/10/21 07:54:13;;;;;;;;;0.00;0.00;;;;;;;;5149534;28;8834;-73
2022/10/21 07:56:46;;;;;;;;;0.60;0.60;;;;;;;;5145425;28;8883;-74
2022/10/21 07:59:19;;;;;;;;;0.80;0.80;;;;;;;;5149057;28;8811;-74
2022/10/21 08:01:51;;;;;;;;;2.00;2.00;;;;;;;;5162481;28;9574;-74
2022/10/21 08:04:28;;;;;;;;;1.00;1.00;;;;;;;;5132033;28;8843;-74
2022/10/21 08:06:59;;;;;;;;;0.00;0.00;;;;;;;;5146874;28;8814;-76
2022/10/21 08:09:30;;;;;;;;;1.00;1.00;;;;;;;;5163190;28;8791;-75
2022/10/21 08:12:01;;;;;;;;;0.60;0.60;;;;;;;;5146985;28;8815;-75
2022/10/21 08:14:33;;;;;;;;;0.00;0.00;;;;;;;;5148435;28;8839;-74
2022/10/21 08:17:04;;;;;;;;;0.00;0.00;;;;;;;;5148389;28;9124;-74
2022/10/21 08:19:35;;;;;;;;;2.40;2.40;;;;;;;;5148640;28;8835;-73
2022/10/21 08:22:06;;;;;;;;;1.00;1.00;;;;;;;;5165473;28;8799;-73
2022/10/21 08:24:55;;;;;;;;;1.20;1.20;;;;;;;;5163614;28;8868;-73
2022/10/21 08:27:26;;;;;;;;;1.00;1.00;;;;;;;;5164910;28;8827;-77
2022/10/21 08:29:57;;;;;;;;;0.00;0.00;;;;;;;;5145270;28;8834;-72
2022/10/21 08:32:28;;;;;;;;;2.60;2.60;;;;;;;;5146561;28;8875;-76
2022/10/21 08:34:59;;;;;;;;;8.40;7.60;;;;;;;;5132946;28;8812;-74
2022/10/21 08:37:30;;;;;;;;;0.00;0.00;;;;;;;;5166114;28;8807;-74
2022/10/21 08:40:20;;;;;;;;;7.40;7.20;;;;;;;;5150934;28;8827;-73
2022/10/21 08:42:51;;;;;;;;;12.25;11.50;;;;;;;;5149319;28;8804;-74
2022/10/21 08:45:27;;;;;;;;;5.00;5.00;;;;;;;;5165485;28;9667;-76
2022/10/21 08:48:02;;;;;;;;;2.00;2.00;;;;;;;;5148300;28;8826;-72
2022/10/21 08:50:53;;;;;;;;;0.20;0.20;;;;;;;;5164991;28;8806;-73
2022/10/21 08:53:40;;;;;;;;;0.00;0.00;;;;;;;;5128933;28;8793;-72
2022/10/21 08:56:12;;;;;;;;;0.00;0.00;;;;;;;;5145036;28;8816;-71
2022/10/21 08:58:45;;;;;;;;;0.00;0.00;;;;;;;;5143957;28;8935;-72
2022/10/21 09:01:22;;;;;;;;;3.00;3.00;;;;;;;;5146794;28;8852;-72
2022/10/21 09:04:12;;;;;;;;;0.40;0.40;;;;;;;;5146752;28;8808;-78
2022/10/21 09:06:52;;;;;;;;;0.00;0.00;;;;;;;;5160744;28;8803;-74
2022/10/21 09:09:33;;;;;;;;;9.20;9.20;;;;;;;;5145982;28;8807;-73
2022/10/21 09:12:13;;;;;;;;;0.00;0.00;;;;;;;;5164600;28;8808;-74
2022/10/21 09:15:05;;;;;;;;;0.00;0.00;;;;;;;;5153151;28;8826;-74
2022/10/21 09:18:01;;;;;;;;;1.00;1.00;;;;;;;;5163129;28;8780;-74
